createdAt,value
2022-07-25T00:00:39.182Z,23.53
2022-07-25T00:01:39.270Z,23.53
2022-07-25T00:02:39.170Z,23.53
2022-07-25T00:03:39.237Z,23.48
2022-07-25T00:04:39.237Z,23.48
2022-07-25T00:05:39.132Z,23.46
2022-07-25T00:06:39.133Z,23.46
2022-07-25T00:07:39.106Z,23.43
2022-07-25T00:08:39.109Z,23.40
2022-07-25T00:09:39.085Z,23.39
2022-07-25T00:10:39.082Z,23.38
2022-07-25T00:11:39.068Z,23.36
2022-07-25T00:12:39.060Z,23.33
2022-07-25T00:13:39.047Z,23.31
2022-07-25T00:14:39.036Z,23.28
2022-07-25T00:15:39.036Z,23.25
2022-07-25T00:16:39.028Z,23.22
2022-07-25T00:17:38.997Z,23.19
2022-07-25T00:18:38.988Z,23.16
2022-07-25T00:19:38.982Z,23.15
2022-07-25T00:20:38.969Z,23.12
2022-07-25T00:21:38.963Z,23.12
2022-07-25T00:22:38.950Z,23.09
2022-07-25T00:23:38.940Z,23.05
2022-07-25T00:24:38.930Z,23.02
2022-07-25T00:25:38.920Z,23.01
2022-07-25T00:26:40.562Z,22.98
2022-07-25T00:27:38.884Z,22.95
2022-07-25T00:28:38.899Z,22.91
2022-07-25T00:29:38.882Z,22.90
2022-07-25T00:30:38.861Z,22.85
2022-07-25T00:31:38.917Z,22.82
2022-07-25T00:32:38.844Z,22.79
2022-07-25T00:33:38.825Z,22.76
2022-07-25T00:34:38.814Z,22.72
2022-07-25T00:35:38.815Z,22.68
2022-07-25T00:36:38.809Z,22.65
2022-07-25T00:37:38.794Z,22.62
2022-07-25T00:38:38.804Z,22.60
2022-07-25T00:39:38.763Z,22.57
2022-07-25T00:40:38.756Z,22.54
2022-07-25T00:41:38.766Z,22.51
2022-07-25T00:42:38.727Z,22.49
2022-07-25T00:43:38.716Z,22.46
2022-07-25T00:44:38.706Z,22.43
2022-07-25T00:45:38.688Z,22.42
2022-07-25T00:46:38.767Z,22.40
2022-07-25T00:47:38.671Z,22.39
2022-07-25T00:48:38.687Z,22.37
2022-07-25T00:49:38.660Z,22.36
2022-07-25T00:50:38.649Z,22.36
2022-07-25T00:51:38.639Z,22.35
2022-07-25T00:52:38.621Z,22.35
2022-07-25T00:53:38.610Z,22.33
2022-07-25T00:54:38.598Z,22.33
2022-07-25T00:55:38.589Z,22.31
2022-07-25T00:56:38.598Z,22.31
2022-07-25T00:57:38.561Z,22.31
2022-07-25T00:58:38.551Z,22.31
2022-07-25T00:59:38.552Z,22.30
2022-07-25T01:00:38.532Z,22.30
2022-07-25T01:01:38.561Z,22.28
2022-07-25T01:02:38.571Z,22.28
2022-07-25T01:03:38.494Z,22.27
2022-07-25T01:04:38.507Z,22.28
2022-07-25T01:05:38.482Z,22.27
2022-07-25T01:06:38.473Z,22.27
2022-07-25T01:07:38.454Z,22.27
2022-07-25T01:08:38.454Z,22.28
2022-07-25T01:09:38.445Z,22.25
2022-07-25T01:10:38.434Z,22.27
2022-07-25T01:11:38.429Z,22.27
2022-07-25T01:12:38.407Z,22.28
2022-07-25T01:13:38.397Z,22.28
2022-07-25T01:14:38.389Z,22.28
2022-07-25T01:15:38.415Z,22.28
2022-07-25T01:16:38.379Z,22.28
2022-07-25T01:17:38.358Z,22.27
2022-07-25T01:18:38.339Z,22.27
2022-07-25T01:19:38.339Z,22.27
2022-07-25T01:20:38.321Z,22.27
2022-07-25T01:21:38.309Z,22.27
2022-07-25T01:22:38.309Z,22.27
2022-07-25T01:23:38.312Z,22.28
2022-07-25T01:24:38.299Z,22.25
2022-07-25T01:25:38.280Z,22.24
2022-07-25T01:26:38.291Z,22.25
2022-07-25T01:27:38.233Z,22.24
2022-07-25T01:28:38.232Z,22.24
2022-07-25T01:29:38.223Z,22.22
2022-07-25T01:30:38.271Z,22.24
2022-07-25T01:31:38.287Z,22.22
2022-07-25T01:32:38.183Z,22.22
2022-07-25T01:33:38.172Z,22.22
2022-07-25T01:34:38.177Z,22.21
2022-07-25T01:35:43.271Z,22.20
2022-07-25T01:36:39.393Z,22.18
2022-07-25T01:37:38.133Z,22.18
2022-07-25T01:38:38.125Z,22.17
2022-07-25T01:39:38.116Z,22.15
2022-07-25T01:40:38.118Z,22.15
2022-07-25T01:41:38.106Z,22.14
2022-07-25T01:42:38.078Z,22.14
2022-07-25T01:43:38.067Z,22.12
2022-07-25T01:44:38.058Z,22.12
2022-07-25T01:45:38.038Z,22.12
2022-07-25T01:46:38.103Z,22.09
2022-07-25T01:47:38.029Z,22.07
2022-07-25T01:48:38.094Z,22.06
2022-07-25T01:49:38.021Z,22.05
2022-07-25T01:50:38.001Z,22.02
2022-07-25T01:51:37.994Z,21.99
2022-07-25T01:52:37.984Z,21.99
2022-07-25T01:53:37.969Z,21.96
2022-07-25T01:54:37.951Z,21.94
2022-07-25T01:55:37.940Z,21.92
2022-07-25T01:56:37.948Z,21.91
2022-07-25T01:57:37.912Z,21.90
2022-07-25T01:58:37.924Z,21.88
2022-07-25T01:59:37.902Z,21.86
2022-07-25T02:00:37.882Z,21.83
2022-07-25T02:01:37.956Z,21.82
2022-07-25T02:02:37.869Z,21.80
2022-07-25T02:03:37.845Z,21.79
2022-07-25T02:04:37.915Z,21.79
2022-07-25T02:05:37.824Z,21.77
2022-07-25T02:06:37.843Z,21.75
2022-07-25T02:07:37.804Z,21.72
2022-07-25T02:08:37.804Z,21.72
2022-07-25T02:09:37.794Z,21.69
2022-07-25T02:10:37.796Z,21.69
2022-07-25T02:11:37.776Z,21.65
2022-07-25T02:12:37.756Z,21.64
2022-07-25T02:13:37.777Z,21.65
2022-07-25T02:14:37.738Z,21.62
2022-07-25T02:15:37.752Z,21.61
2022-07-25T02:16:37.752Z,21.59
2022-07-25T02:17:37.700Z,21.59
2022-07-25T02:18:37.689Z,21.56
2022-07-25T02:19:37.689Z,21.54
2022-07-25T02:20:37.678Z,21.54
2022-07-25T02:21:37.667Z,21.53
2022-07-25T02:22:37.650Z,21.54
2022-07-25T02:23:37.640Z,21.52
2022-07-25T02:24:37.632Z,21.52
2022-07-25T02:25:37.612Z,21.52
2022-07-25T02:26:37.623Z,21.50
2022-07-25T02:27:37.591Z,21.50
2022-07-25T02:28:37.591Z,21.47
2022-07-25T02:29:37.582Z,21.49
2022-07-25T02:30:37.581Z,21.44
2022-07-25T02:31:37.579Z,21.43
2022-07-25T02:32:37.544Z,21.42
2022-07-25T02:33:37.539Z,21.42
2022-07-25T02:34:37.516Z,21.40
2022-07-25T02:35:37.514Z,21.38
2022-07-25T02:36:37.515Z,21.37
2022-07-25T02:37:37.497Z,21.34
2022-07-25T02:38:37.485Z,21.32
2022-07-25T02:39:37.484Z,21.31
2022-07-25T02:40:37.457Z,21.29
2022-07-25T02:41:37.462Z,21.28
2022-07-25T02:42:37.427Z,21.25
2022-07-25T02:43:37.449Z,21.24
2022-07-25T02:44:37.417Z,21.21
2022-07-25T02:45:37.477Z,21.19
2022-07-25T02:46:37.456Z,21.16
2022-07-25T02:47:37.503Z,21.14
2022-07-25T02:48:37.418Z,21.12
2022-07-25T02:49:37.429Z,21.12
2022-07-25T02:50:37.348Z,21.09
2022-07-25T02:51:37.340Z,21.06
2022-07-25T02:52:37.321Z,21.04
2022-07-25T02:53:56.667Z,21.03
2022-07-25T02:54:38.299Z,20.99
2022-07-25T02:55:37.291Z,20.99
2022-07-25T02:56:37.303Z,20.95
2022-07-25T02:57:37.275Z,20.94
2022-07-25T02:58:37.270Z,20.91
2022-07-25T02:59:37.260Z,20.91
2022-07-25T03:00:38.222Z,20.88
2022-07-25T03:01:37.336Z,20.88
2022-07-25T03:02:37.222Z,20.84
2022-07-25T03:03:37.280Z,20.82
2022-07-25T03:04:37.220Z,20.84
2022-07-25T03:05:37.191Z,20.80
2022-07-25T03:06:37.175Z,20.79
2022-07-25T03:07:37.176Z,20.80
2022-07-25T03:08:37.175Z,20.77
2022-07-25T03:09:37.146Z,20.76
2022-07-25T03:10:37.133Z,20.77
2022-07-25T03:11:37.204Z,20.74
2022-07-25T03:12:37.113Z,20.74
2022-07-25T03:13:37.109Z,20.73
2022-07-25T03:14:37.088Z,20.73
2022-07-25T03:15:37.079Z,20.72
2022-07-25T03:16:37.145Z,20.70
2022-07-25T03:17:37.059Z,20.70
2022-07-25T03:18:37.039Z,20.69
2022-07-25T03:19:37.049Z,20.67
2022-07-25T03:20:37.018Z,20.67
2022-07-25T03:21:37.009Z,20.66
2022-07-25T03:22:37.008Z,20.66
2022-07-25T03:23:37.049Z,20.61
2022-07-25T03:24:36.991Z,20.61
2022-07-25T03:25:36.969Z,20.58
2022-07-25T03:26:36.959Z,20.59
2022-07-25T03:27:36.942Z,20.57
2022-07-25T03:28:36.932Z,20.55
2022-07-25T03:29:36.941Z,20.52
2022-07-25T03:30:36.951Z,20.52
2022-07-25T03:31:36.938Z,20.48
2022-07-25T03:32:36.892Z,20.48
2022-07-25T03:33:36.881Z,20.47
2022-07-25T03:34:36.882Z,20.42
2022-07-25T03:35:36.863Z,20.41
2022-07-25T03:36:36.857Z,20.39
2022-07-25T03:37:36.844Z,20.38
2022-07-25T03:38:36.825Z,20.36
2022-07-25T03:39:36.823Z,20.36
2022-07-25T03:40:36.807Z,20.33
2022-07-25T03:41:36.798Z,20.33
2022-07-25T03:42:36.795Z,20.33
2022-07-25T03:43:36.787Z,20.32
2022-07-25T03:44:36.777Z,20.32
2022-07-25T03:45:36.822Z,20.32
2022-07-25T03:46:36.737Z,20.31
2022-07-25T03:47:36.735Z,20.31
2022-07-25T03:48:36.756Z,20.31
2022-07-25T03:49:36.736Z,20.29
2022-07-25T03:50:36.699Z,20.31
2022-07-25T03:51:36.695Z,20.31
2022-07-25T03:52:36.678Z,20.31
2022-07-25T03:53:36.667Z,20.29
2022-07-25T03:54:36.658Z,20.29
2022-07-25T03:55:36.642Z,20.29
2022-07-25T03:56:36.629Z,20.29
2022-07-25T03:57:37.620Z,20.29
2022-07-25T03:58:36.610Z,20.28
2022-07-25T03:59:36.611Z,20.31
2022-07-25T04:00:36.669Z,20.31
2022-07-25T04:01:36.659Z,20.28
2022-07-25T04:02:36.598Z,20.29
2022-07-25T04:03:36.552Z,20.29
2022-07-25T04:04:36.561Z,20.28
2022-07-25T04:05:36.532Z,20.28
2022-07-25T04:06:36.521Z,20.29
2022-07-25T04:07:36.515Z,20.29
2022-07-25T04:08:36.505Z,20.29
2022-07-25T04:09:36.511Z,20.31
2022-07-25T04:10:36.486Z,20.31
2022-07-25T04:11:36.485Z,20.31
2022-07-25T04:12:36.465Z,20.31
2022-07-25T04:13:36.456Z,20.32
2022-07-25T04:14:36.435Z,20.32
2022-07-25T04:15:36.450Z,20.31
2022-07-25T04:16:36.895Z,20.32
2022-07-25T04:17:36.723Z,20.32
2022-07-25T04:18:36.396Z,20.33
2022-07-25T04:19:36.386Z,20.32
2022-07-25T04:20:36.400Z,20.32
2022-07-25T04:21:36.368Z,20.35
2022-07-25T04:22:36.357Z,20.36
2022-07-25T04:23:36.360Z,20.38
2022-07-25T04:24:36.337Z,20.41
2022-07-25T04:25:36.330Z,20.43
2022-07-25T04:26:36.318Z,20.47
2022-07-25T04:27:36.291Z,20.50
2022-07-25T04:28:36.290Z,20.51
2022-07-25T04:29:36.270Z,20.55
2022-07-25T04:30:36.280Z,20.57
2022-07-25T04:31:36.355Z,20.59
2022-07-25T04:32:36.250Z,20.62
2022-07-25T04:33:36.239Z,20.66
2022-07-25T04:34:36.235Z,20.70
2022-07-25T04:35:36.231Z,20.74
2022-07-25T04:36:36.212Z,20.77
2022-07-25T04:37:36.205Z,20.82
2022-07-25T04:38:36.204Z,20.85
2022-07-25T04:39:36.171Z,20.89
2022-07-25T04:40:36.196Z,20.92
2022-07-25T04:41:36.166Z,20.97
2022-07-25T04:42:36.150Z,20.99
2022-07-25T04:43:36.133Z,21.04
2022-07-25T04:44:36.136Z,21.06
2022-07-25T04:45:36.160Z,21.10
2022-07-25T04:46:36.138Z,21.13
2022-07-25T04:47:36.097Z,21.17
2022-07-25T04:48:36.130Z,21.22
2022-07-25T04:49:36.076Z,21.27
2022-07-25T04:50:36.067Z,21.32
2022-07-25T04:51:36.057Z,21.37
2022-07-25T04:52:36.038Z,21.42
2022-07-25T04:53:36.017Z,21.46
2022-07-25T04:54:36.018Z,21.53
2022-07-25T04:55:35.999Z,21.58
2022-07-25T04:56:36.020Z,21.64
2022-07-25T04:57:35.980Z,21.69
2022-07-25T04:58:35.980Z,21.77
2022-07-25T04:59:35.968Z,21.80
2022-07-25T05:00:35.971Z,21.86
2022-07-25T05:01:36.049Z,21.91
2022-07-25T05:02:35.962Z,21.96
2022-07-25T05:03:35.913Z,22.03
2022-07-25T05:04:35.914Z,22.06
2022-07-25T05:05:36.892Z,22.12
2022-07-25T05:06:35.901Z,22.15
2022-07-25T05:07:35.877Z,22.21
2022-07-25T05:08:35.862Z,22.25
2022-07-25T05:09:35.852Z,22.28
2022-07-25T05:10:35.845Z,22.35
2022-07-25T05:11:35.854Z,22.40
2022-07-25T05:12:35.825Z,22.47
2022-07-25T05:13:35.813Z,22.55
2022-07-25T05:14:35.804Z,22.62
2022-07-25T05:15:35.784Z,22.70
2022-07-25T05:16:35.819Z,22.80
2022-07-25T05:17:35.767Z,22.91
2022-07-25T05:18:35.754Z,23.00
2022-07-25T05:19:35.745Z,23.09
2022-07-25T05:20:35.738Z,23.19
2022-07-25T05:21:35.734Z,23.27
2022-07-25T05:22:35.721Z,23.36
2022-07-25T05:23:35.719Z,23.43
2022-07-25T05:24:35.687Z,23.50
2022-07-25T05:25:35.689Z,23.55
2022-07-25T05:26:35.692Z,23.63
2022-07-25T05:27:35.658Z,23.69
2022-07-25T05:28:35.643Z,23.73
2022-07-25T05:29:35.651Z,23.79
2022-07-25T05:30:39.722Z,23.83
2022-07-25T05:31:35.644Z,23.88
2022-07-25T05:32:35.623Z,23.94
2022-07-25T05:33:35.591Z,23.98
2022-07-25T05:34:35.591Z,24.02
2022-07-25T05:35:35.580Z,24.08
2022-07-25T05:36:35.571Z,24.09
2022-07-25T05:37:35.564Z,24.16
2022-07-25T05:38:35.535Z,24.21
2022-07-25T05:39:35.531Z,24.25
2022-07-25T05:40:35.522Z,24.28
2022-07-25T05:41:35.525Z,24.32
2022-07-25T05:42:35.494Z,24.37
2022-07-25T05:43:35.495Z,24.39
2022-07-25T05:44:35.465Z,24.45
2022-07-25T05:45:35.464Z,24.49
2022-07-25T05:46:35.560Z,24.52
2022-07-25T05:47:35.467Z,24.57
2022-07-25T05:48:35.479Z,24.60
2022-07-25T05:49:35.446Z,24.64
2022-07-25T05:50:35.407Z,24.67
2022-07-25T05:51:35.398Z,24.73
2022-07-25T05:52:35.410Z,24.78
2022-07-25T05:53:35.398Z,24.83
2022-07-25T05:54:35.369Z,24.87
2022-07-25T05:55:35.369Z,24.91
2022-07-25T05:56:35.361Z,24.98
2022-07-25T05:57:35.358Z,25.03
2022-07-25T05:58:35.331Z,25.09
2022-07-25T05:59:35.331Z,25.15
2022-07-25T06:00:35.301Z,25.23
2022-07-25T06:01:35.358Z,25.30
2022-07-25T06:02:35.471Z,25.36
2022-07-25T06:03:35.274Z,25.46
2022-07-25T06:04:35.284Z,25.55
2022-07-25T06:05:35.257Z,25.64
2022-07-25T06:06:35.236Z,25.75
2022-07-25T06:07:35.255Z,25.83
2022-07-25T06:08:35.225Z,25.94
2022-07-25T06:09:35.208Z,26.02
2022-07-25T06:10:35.203Z,26.13
2022-07-25T06:11:35.207Z,26.23
2022-07-25T06:12:36.451Z,26.35
2022-07-25T06:13:35.197Z,26.47
2022-07-25T06:14:35.167Z,26.58
2022-07-25T06:15:35.148Z,26.72
2022-07-25T06:16:35.176Z,26.82
2022-07-25T06:17:35.150Z,26.95
2022-07-25T06:18:35.106Z,27.06
2022-07-25T06:19:35.109Z,27.17
2022-07-25T06:20:35.090Z,27.27
2022-07-25T06:21:35.080Z,27.39
2022-07-25T06:22:35.085Z,27.47
2022-07-25T06:23:35.061Z,27.57
2022-07-25T06:24:35.041Z,27.69
2022-07-25T06:25:35.034Z,27.82
2022-07-25T06:26:35.022Z,27.96
2022-07-25T06:27:35.023Z,28.12
2022-07-25T06:28:34.994Z,28.31
2022-07-25T06:29:34.994Z,28.51
2022-07-25T06:30:34.973Z,28.71
2022-07-25T06:31:35.151Z,28.93
2022-07-25T06:32:34.968Z,29.21
2022-07-25T06:33:34.937Z,29.51
2022-07-25T06:34:34.927Z,29.73
2022-07-25T06:35:34.929Z,30.00
2022-07-25T06:36:34.910Z,30.22
2022-07-25T06:37:34.910Z,30.46
2022-07-25T06:38:34.888Z,30.73
2022-07-25T06:39:34.878Z,30.95
2022-07-25T06:40:34.859Z,31.19
2022-07-25T06:41:34.859Z,31.44
2022-07-25T06:42:34.852Z,31.61
2022-07-25T06:43:34.849Z,31.46
2022-07-25T06:44:34.836Z,31.17
2022-07-25T06:45:34.813Z,30.97
2022-07-25T06:46:34.888Z,30.72
2022-07-25T06:47:36.113Z,30.64
2022-07-25T06:48:34.810Z,30.55
2022-07-25T06:49:34.784Z,30.43
2022-07-25T06:50:34.777Z,30.26
2022-07-25T06:51:34.766Z,30.04
2022-07-25T06:52:34.759Z,29.80
2022-07-25T06:53:34.756Z,29.67
2022-07-25T06:54:34.724Z,29.71
2022-07-25T06:55:34.721Z,29.80
2022-07-25T06:56:34.707Z,29.90
2022-07-25T06:57:34.711Z,30.05
2022-07-25T06:58:34.689Z,30.19
2022-07-25T06:59:34.679Z,30.24
2022-07-25T07:00:34.704Z,30.29
2022-07-25T07:01:34.734Z,30.34
2022-07-25T07:02:34.669Z,30.35
2022-07-25T07:03:34.711Z,30.38
2022-07-25T07:04:34.631Z,30.35
2022-07-25T07:05:34.632Z,30.26
2022-07-25T07:06:34.602Z,30.07
2022-07-25T07:07:34.616Z,29.83
2022-07-25T07:08:34.595Z,29.61
2022-07-25T07:09:34.609Z,29.39
2022-07-25T07:10:34.613Z,29.19
2022-07-25T07:11:34.555Z,29.05
2022-07-25T07:12:34.544Z,29.00
2022-07-25T07:13:34.540Z,28.93
2022-07-25T07:14:34.518Z,28.93
2022-07-25T07:15:34.510Z,28.95
2022-07-25T07:16:34.623Z,28.92
2022-07-25T07:17:34.528Z,28.93
2022-07-25T07:18:34.484Z,29.08
2022-07-25T07:19:34.478Z,29.28
2022-07-25T07:20:34.469Z,29.42
2022-07-25T07:21:34.451Z,29.48
2022-07-25T07:22:34.452Z,29.46
2022-07-25T07:23:34.431Z,29.43
2022-07-25T07:24:34.412Z,29.33
2022-07-25T07:25:34.413Z,29.24
2022-07-25T07:26:34.412Z,29.19
2022-07-25T07:27:34.423Z,29.16
2022-07-25T07:28:34.383Z,29.14
2022-07-25T07:29:34.385Z,29.18
2022-07-25T07:31:05.598Z,29.24
2022-07-25T07:31:35.399Z,29.39
2022-07-25T07:32:34.376Z,29.52
2022-07-25T07:33:34.333Z,29.60
2022-07-25T07:34:34.317Z,29.64
2022-07-25T07:35:34.938Z,29.64
2022-07-25T07:36:34.287Z,29.65
2022-07-25T07:37:38.758Z,29.85
2022-07-25T07:38:35.279Z,30.17
2022-07-25T07:39:34.262Z,30.47
2022-07-25T07:40:34.259Z,30.67
2022-07-25T07:41:34.240Z,30.72
2022-07-25T07:42:34.240Z,30.61
2022-07-25T07:43:34.231Z,30.42
2022-07-25T07:44:34.223Z,30.20
2022-07-25T07:45:34.212Z,30.05
2022-07-25T07:46:34.286Z,30.01
2022-07-25T07:47:34.212Z,30.04
2022-07-25T07:48:34.201Z,30.05
2022-07-25T07:49:36.891Z,30.04
2022-07-25T07:50:34.157Z,29.97
2022-07-25T07:51:34.165Z,29.94
2022-07-25T07:52:34.135Z,29.94
2022-07-25T07:53:34.136Z,29.95
2022-07-25T07:54:34.108Z,30.01
2022-07-25T07:55:34.108Z,30.08
2022-07-25T07:56:34.099Z,30.13
2022-07-25T07:57:34.079Z,30.26
2022-07-25T07:58:34.090Z,30.32
2022-07-25T07:59:34.069Z,30.37
2022-07-25T08:00:34.049Z,30.39
2022-07-25T08:01:34.082Z,30.34
2022-07-25T08:02:34.070Z,30.27
2022-07-25T08:03:34.033Z,30.23
2022-07-25T08:04:34.010Z,30.15
2022-07-25T08:05:34.002Z,30.05
2022-07-25T08:06:33.998Z,30.05
2022-07-25T08:07:33.982Z,30.02
2022-07-25T08:08:34.144Z,29.98
2022-07-25T08:09:33.965Z,29.97
2022-07-25T08:10:33.957Z,29.90
2022-07-25T08:11:33.955Z,29.78
2022-07-25T08:12:33.927Z,29.70
2022-07-25T08:13:34.013Z,29.61
2022-07-25T08:14:33.922Z,29.52
2022-07-25T08:15:33.897Z,29.45
2022-07-25T08:16:33.968Z,29.41
2022-07-25T08:17:33.878Z,29.39
2022-07-25T08:18:33.908Z,29.33
2022-07-25T08:19:33.861Z,29.23
2022-07-25T08:20:38.520Z,29.21
2022-07-25T08:21:34.832Z,29.16
2022-07-25T08:22:33.829Z,29.15
2022-07-25T08:23:33.909Z,29.12
2022-07-25T08:24:33.812Z,29.12
2022-07-25T08:25:33.802Z,29.15
2022-07-25T08:26:33.805Z,29.15
2022-07-25T08:27:33.782Z,29.12
2022-07-25T08:28:33.774Z,29.09
2022-07-25T08:29:33.754Z,29.08
2022-07-25T08:30:33.744Z,29.08
2022-07-25T08:31:33.790Z,29.08
2022-07-25T08:32:33.724Z,29.08
2022-07-25T08:33:33.739Z,29.06
2022-07-25T08:34:33.717Z,29.06
2022-07-25T08:35:33.710Z,29.05
2022-07-25T08:36:34.838Z,29.06
2022-07-25T08:37:33.679Z,29.02
2022-07-25T08:38:33.686Z,28.95
2022-07-25T08:39:33.649Z,28.93
2022-07-25T08:40:33.647Z,28.95
2022-07-25T08:41:33.637Z,28.96
2022-07-25T08:42:33.622Z,28.95
2022-07-25T08:43:33.635Z,28.98
2022-07-25T08:44:33.601Z,29.05
2022-07-25T08:45:33.601Z,29.06
2022-07-25T08:46:33.615Z,29.06
2022-07-25T08:47:33.572Z,28.98
2022-07-25T08:48:33.599Z,29.00
2022-07-25T08:49:33.555Z,28.98
2022-07-25T08:50:33.546Z,28.93
2022-07-25T08:51:33.526Z,28.90
2022-07-25T08:52:33.516Z,28.89
2022-07-25T08:53:34.872Z,28.86
2022-07-25T08:54:33.494Z,28.88
2022-07-25T08:55:33.487Z,28.90
2022-07-25T08:56:33.469Z,28.90
2022-07-25T08:57:33.466Z,28.98
2022-07-25T08:58:33.466Z,29.05
2022-07-25T08:59:33.448Z,29.09
2022-07-25T09:00:33.428Z,29.15
2022-07-25T09:01:35.147Z,29.19
2022-07-25T09:02:33.610Z,29.24
2022-07-25T09:03:33.422Z,29.26
2022-07-25T09:04:33.391Z,29.34
2022-07-25T09:05:33.388Z,29.41
2022-07-25T09:06:33.361Z,29.49
2022-07-25T09:07:33.382Z,29.52
2022-07-25T09:08:33.362Z,29.49
2022-07-25T09:09:33.345Z,29.48
2022-07-25T09:10:33.333Z,29.46
2022-07-25T09:11:33.326Z,29.46
2022-07-25T09:12:33.345Z,29.48
2022-07-25T09:13:33.335Z,29.67
2022-07-25T09:14:33.297Z,29.94
2022-07-25T09:15:33.373Z,30.17
2022-07-25T09:16:33.274Z,30.57
2022-07-25T09:17:33.287Z,30.82
2022-07-25T09:18:33.258Z,30.92
2022-07-25T09:19:33.238Z,30.92
2022-07-25T09:20:33.230Z,30.70
2022-07-25T09:21:33.221Z,30.53
2022-07-25T09:22:33.210Z,30.69
2022-07-25T09:23:33.210Z,31.07
2022-07-25T09:24:33.190Z,31.54
2022-07-25T09:25:33.189Z,31.88
2022-07-25T09:26:33.172Z,32.06
2022-07-25T09:27:33.172Z,32.30
2022-07-25T09:28:33.164Z,32.47
2022-07-25T09:29:33.147Z,32.63
2022-07-25T09:30:33.124Z,32.77
2022-07-25T09:31:33.277Z,32.82
2022-07-25T09:32:33.120Z,32.99
2022-07-25T09:33:33.116Z,33.11
2022-07-25T09:34:33.096Z,33.01
2022-07-25T09:35:33.087Z,32.66
2022-07-25T09:36:33.090Z,32.29
2022-07-25T09:37:33.077Z,31.99
2022-07-25T09:38:33.058Z,31.68
2022-07-25T09:39:33.047Z,31.44
2022-07-25T09:40:33.039Z,31.17
2022-07-25T09:41:33.029Z,30.95
2022-07-25T09:42:33.017Z,30.80
2022-07-25T09:43:33.030Z,30.80
2022-07-25T09:44:33.004Z,30.97
2022-07-25T09:45:32.998Z,31.39
2022-07-25T09:46:33.073Z,31.73
2022-07-25T09:47:32.990Z,32.03
2022-07-25T09:48:33.015Z,32.29
2022-07-25T09:49:32.992Z,32.55
2022-07-25T09:50:32.966Z,32.66
2022-07-25T09:51:32.934Z,32.72
2022-07-25T09:52:32.924Z,32.57
2022-07-25T09:53:32.915Z,32.47
2022-07-25T09:54:32.907Z,32.35
2022-07-25T09:55:32.905Z,32.19
2022-07-25T09:56:32.889Z,31.95
2022-07-25T09:57:32.868Z,31.70
2022-07-25T09:58:32.872Z,31.47
2022-07-25T09:59:32.888Z,31.31
2022-07-25T10:00:32.842Z,31.25
2022-07-25T10:01:32.871Z,31.25
2022-07-25T10:02:32.966Z,31.19
2022-07-25T10:03:32.821Z,31.09
2022-07-25T10:04:32.829Z,30.98
2022-07-25T10:05:32.801Z,30.86
2022-07-25T10:06:32.781Z,30.77
2022-07-25T10:07:32.774Z,30.72
2022-07-25T10:08:32.765Z,30.60
2022-07-25T10:09:32.763Z,30.46
2022-07-25T10:10:32.746Z,30.37
2022-07-25T10:11:32.747Z,30.19
2022-07-25T10:12:32.724Z,30.04
2022-07-25T10:13:32.746Z,29.87
2022-07-25T10:14:32.728Z,29.74
2022-07-25T10:15:32.697Z,29.57
2022-07-25T10:16:32.712Z,29.48
2022-07-25T10:17:32.689Z,29.37
2022-07-25T10:18:32.658Z,29.30
2022-07-25T10:19:32.689Z,29.23
2022-07-25T10:20:32.639Z,29.18
2022-07-25T10:21:32.638Z,29.12
2022-07-25T10:22:54.717Z,29.06
2022-07-25T10:23:33.619Z,29.00
2022-07-25T10:24:32.631Z,28.96
2022-07-25T10:25:32.613Z,28.90
2022-07-25T10:26:32.590Z,28.83
2022-07-25T10:27:32.574Z,28.77
2022-07-25T10:28:32.566Z,28.68
2022-07-25T10:29:32.564Z,28.59
2022-07-25T10:30:32.626Z,28.51
2022-07-25T10:31:32.535Z,28.40
2022-07-25T10:32:32.545Z,28.24
2022-07-25T10:33:32.516Z,28.02
2022-07-25T10:34:32.507Z,27.75
2022-07-25T10:35:32.498Z,27.44
2022-07-25T10:36:32.489Z,27.17
2022-07-25T10:37:32.476Z,26.89
2022-07-25T10:38:32.468Z,26.65
2022-07-25T10:39:32.470Z,26.36
2022-07-25T10:40:32.439Z,26.10
2022-07-25T10:41:32.438Z,25.88
2022-07-25T10:42:32.418Z,25.73
2022-07-25T10:43:32.430Z,25.69
2022-07-25T10:44:32.410Z,25.70
2022-07-25T10:45:35.399Z,25.76
2022-07-25T10:46:33.417Z,25.87
2022-07-25T10:47:32.373Z,25.95
2022-07-25T10:48:32.398Z,26.10
2022-07-25T10:49:32.726Z,26.15
2022-07-25T10:50:54.493Z,26.23
2022-07-25T10:51:35.938Z,26.29
2022-07-25T10:52:33.319Z,26.36
2022-07-25T10:53:32.303Z,26.43
2022-07-25T10:54:32.295Z,26.43
2022-07-25T10:55:32.276Z,26.45
2022-07-25T10:56:32.267Z,26.45
2022-07-25T10:57:32.437Z,26.45
2022-07-25T10:58:32.246Z,26.40
2022-07-25T10:59:32.269Z,26.33
2022-07-25T11:00:32.236Z,26.28
2022-07-25T11:01:32.300Z,26.26
2022-07-25T11:02:32.288Z,26.23
2022-07-25T11:03:32.207Z,26.25
2022-07-25T11:04:32.170Z,26.20
2022-07-25T11:05:32.216Z,26.13
2022-07-25T11:06:32.149Z,26.13
2022-07-25T11:07:32.163Z,26.23
2022-07-25T11:08:32.130Z,26.35
2022-07-25T11:09:32.133Z,26.55
2022-07-25T11:10:32.114Z,26.85
2022-07-25T11:11:32.103Z,27.00
2022-07-25T11:12:32.121Z,27.06
2022-07-25T11:13:32.092Z,27.13
2022-07-25T11:14:32.073Z,27.27
2022-07-25T11:15:32.065Z,27.44
2022-07-25T11:16:32.158Z,27.81
2022-07-25T11:17:32.048Z,28.14
2022-07-25T11:18:32.027Z,28.30
2022-07-25T11:19:32.039Z,28.17
2022-07-25T11:20:32.019Z,27.97
2022-07-25T11:21:32.008Z,27.88
2022-07-25T11:22:32.002Z,27.75
2022-07-25T11:23:31.996Z,27.66
2022-07-25T11:24:31.999Z,27.62
2022-07-25T11:25:31.970Z,27.51
2022-07-25T11:26:31.973Z,27.43
2022-07-25T11:27:31.943Z,27.34
2022-07-25T11:28:31.946Z,27.28
2022-07-25T11:29:31.922Z,27.25
2022-07-25T11:30:31.913Z,27.29
2022-07-25T11:31:31.927Z,27.41
2022-07-25T11:32:31.907Z,27.57
2022-07-25T11:33:31.873Z,27.82
2022-07-25T11:34:31.877Z,27.99
2022-07-25T11:35:31.882Z,28.06
2022-07-25T11:36:31.844Z,28.04
2022-07-25T11:37:31.841Z,27.92
2022-07-25T11:38:31.836Z,27.72
2022-07-25T11:39:31.829Z,27.50
2022-07-25T11:40:31.833Z,27.40
2022-07-25T11:41:31.822Z,27.39
2022-07-25T11:42:31.787Z,27.37
2022-07-25T11:43:31.768Z,27.34
2022-07-25T11:44:31.768Z,27.41
2022-07-25T11:45:31.802Z,27.62
2022-07-25T11:46:31.787Z,27.78
2022-07-25T11:47:31.745Z,27.84
2022-07-25T11:48:31.773Z,27.85
2022-07-25T11:49:31.712Z,27.84
2022-07-25T11:50:31.721Z,27.79
2022-07-25T11:51:31.693Z,28.00
2022-07-25T11:52:31.690Z,28.29
2022-07-25T11:53:31.674Z,28.49
2022-07-25T11:54:31.664Z,28.70
2022-07-25T11:55:31.664Z,29.00
2022-07-25T11:56:42.655Z,29.42
2022-07-25T11:57:32.632Z,29.73
2022-07-25T11:58:31.629Z,29.92
2022-07-25T11:59:31.626Z,29.83
2022-07-25T12:00:31.625Z,29.51
2022-07-25T12:01:31.598Z,29.02
2022-07-25T12:02:31.780Z,28.62
2022-07-25T12:03:31.700Z,28.58
2022-07-25T12:04:31.578Z,28.67
2022-07-25T12:05:31.571Z,28.78
2022-07-25T12:06:31.550Z,28.89
2022-07-25T12:07:31.541Z,28.90
2022-07-25T12:08:31.550Z,28.88
2022-07-25T12:09:31.514Z,28.83
2022-07-25T12:10:31.573Z,28.88
2022-07-25T12:11:31.522Z,28.76
2022-07-25T12:12:31.495Z,28.61
2022-07-25T12:13:31.482Z,28.55
2022-07-25T12:14:35.365Z,28.61
2022-07-25T12:15:31.485Z,28.64
2022-07-25T12:16:31.500Z,28.64
2022-07-25T12:17:31.437Z,28.54
2022-07-25T12:18:31.425Z,28.59
2022-07-25T12:19:31.425Z,28.70
2022-07-25T12:20:31.426Z,28.89
2022-07-25T12:21:31.398Z,29.06
2022-07-25T12:22:31.398Z,29.09
2022-07-25T12:23:31.379Z,29.08
2022-07-25T12:24:31.369Z,29.08
2022-07-25T12:25:31.379Z,29.42
2022-07-25T12:26:31.350Z,29.85
2022-07-25T12:27:31.351Z,30.02
2022-07-25T12:28:31.333Z,30.11
2022-07-25T12:29:31.323Z,30.00
2022-07-25T12:30:31.382Z,29.82
2022-07-25T12:31:31.371Z,29.52
2022-07-25T12:32:31.294Z,29.30
2022-07-25T12:33:31.284Z,29.19
2022-07-25T12:34:31.276Z,29.15
2022-07-25T12:35:31.288Z,29.11
2022-07-25T12:36:31.255Z,29.18
2022-07-25T12:37:31.259Z,29.36
2022-07-25T12:38:31.247Z,29.51
2022-07-25T12:39:31.228Z,29.51
2022-07-25T12:40:31.238Z,29.52
2022-07-25T12:41:31.207Z,29.67
2022-07-25T12:42:31.198Z,29.78
2022-07-25T12:43:31.201Z,29.87
2022-07-25T12:44:31.204Z,30.02
2022-07-25T12:45:31.242Z,30.11
2022-07-25T12:46:31.170Z,30.17
2022-07-25T12:47:31.161Z,30.16
2022-07-25T12:48:31.215Z,30.07
2022-07-25T12:49:31.141Z,29.97
2022-07-25T12:50:31.143Z,29.98
2022-07-25T12:51:31.135Z,30.01
2022-07-25T12:52:31.129Z,29.94